Time;durP1;ratioP1;P1;durP2;ratioP2;P2;SDS_P1;SDS_P2;PMS_P1;PMS_P2;Temp;Humidity;BMP_temperature;BMP_pressure;BME280_temperature;BME280_humidity;BME280_pressure;Samples;Min_cycle;Max_cycle;Signal;HPM_P1;HPM_P2
2024/04/02 00:00:41;;;;;;;55.93;2.23;;;;;;;;;;5059061;28;20818;-69
2024/04/02 00:03:08;;;;;;;55.87;2.43;;;;;;;;;;5058886;28;20512;-68
2024/04/02 00:05:36;;;;;;;55.63;2.20;;;;;;;;;;5059037;28;20488;-68
2024/04/02 00:08:02;;;;;;;55.77;2.20;;;;;;;;;;5058450;28;20469;-68
2024/04/02 00:10:29;;;;;;;55.33;2.40;;;;;;;;;;5058764;28;20448;-68
2024/04/02 00:12:57;;;;;;;55.60;2.30;;;;;;;;;;5058845;28;20606;-68
2024/04/02 00:15:24;;;;;;;55.70;2.40;;;;;;;;;;5060110;28;20480;-68
2024/04/02 00:17:51;;;;;;;55.13;2.17;;;;;;;;;;5058586;28;20560;-68
2024/04/02 00:20:19;;;;;;;56.57;2.57;;;;;;;;;;5058030;28;20518;-68
2024/04/02 00:22:45;;;;;;;55.73;2.20;;;;;;;;;;5058505;28;20446;-68
2024/04/02 00:25:12;;;;;;;56.27;2.67;;;;;;;;;;5058671;28;20498;-68
2024/04/02 00:27:38;;;;;;;56.20;2.17;;;;;;;;;;5058394;28;20469;-68
2024/04/02 00:30:07;;;;;;;56.27;2.00;;;;;;;;;;5057608;28;20453;-68
2024/04/02 00:32:33;;;;;;;56.07;2.30;;;;;;;;;;5058782;28;21005;-68
2024/04/02 00:35:00;;;;;;;56.03;2.53;;;;;;;;;;5076697;28;20463;-68
2024/04/02 00:37:28;;;;;;;55.50;2.50;;;;;;;;;;5079062;28;20527;-68
2024/04/02 00:39:59;;;;;;;58.00;2.70;;;;;;;;;;5077981;28;20458;-68
2024/04/02 00:42:26;;;;;;;55.60;2.03;;;;;;;;;;5078388;28;20448;-68
2024/04/02 00:44:53;;;;;;;56.07;2.30;;;;;;;;;;5078708;28;20454;-68
2024/04/02 00:47:22;;;;;;;55.90;2.40;;;;;;;;;;5077553;28;20479;-65
2024/04/02 00:49:48;;;;;;;55.60;2.30;;;;;;;;;;5077103;28;20454;-66
2024/04/02 00:52:15;;;;;;;56.27;2.40;;;;;;;;;;5078207;28;21014;-67
2024/04/02 00:54:42;;;;;;;56.63;2.80;;;;;;;;;;5078354;28;20575;-69
2024/04/02 00:57:09;;;;;;;55.50;2.07;;;;;;;;;;5079138;28;20470;-67
2024/04/02 00:59:36;;;;;;;56.30;2.30;;;;;;;;;;5078189;28;20566;-68
2024/04/02 01:02:03;;;;;;;56.30;2.10;;;;;;;;;;5078408;28;20474;-66
2024/04/02 01:04:31;;;;;;;55.30;2.20;;;;;;;;;;5081936;28;20455;-67
2024/04/02 01:06:58;;;;;;;55.60;2.10;;;;;;;;;;5082302;28;20462;-68
2024/04/02 01:09:25;;;;;;;55.23;2.17;;;;;;;;;;5081126;28;20554;-67
2024/04/02 01:11:52;;;;;;;55.90;2.30;;;;;;;;;;5081430;28;20448;-67
2024/04/02 01:14:18;;;;;;;55.80;2.10;;;;;;;;;;5081801;28;20493;-68
2024/04/02 01:16:45;;;;;;;55.83;2.97;;;;;;;;;;5081464;28;20902;-67
2024/04/02 01:19:12;;;;;;;55.53;2.10;;;;;;;;;;5081903;28;20463;-68
2024/04/02 01:21:40;;;;;;;55.93;2.20;;;;;;;;;;5080932;28;20448;-68
2024/04/02 01:24:07;;;;;;;55.47;2.20;;;;;;;;;;5080538;28;20542;-68
2024/04/02 01:26:35;;;;;;;55.67;2.40;;;;;;;;;;5081999;28;20505;-68
2024/04/02 01:29:03;;;;;;;57.27;2.40;;;;;;;;;;5081039;28;20471;-68
2024/04/02 01:31:30;;;;;;;55.93;2.10;;;;;;;;;;5081264;28;20455;-68
2024/04/02 01:33:58;;;;;;;55.93;2.13;;;;;;;;;;5080082;28;20487;-68
2024/04/02 01:36:25;;;;;;;57.20;2.10;;;;;;;;;;5081612;28;20527;-68
2024/04/02 01:38:52;;;;;;;57.50;2.60;;;;;;;;;;5081430;28;20962;-68
2024/04/02 01:41:18;;;;;;;56.67;2.43;;;;;;;;;;5081013;28;20458;-69
2024/04/02 01:43:46;;;;;;;56.00;2.20;;;;;;;;;;5080638;28;20447;-68
2024/04/02 01:46:13;;;;;;;55.67;2.50;;;;;;;;;;5080513;28;20450;-66
2024/04/02 01:48:40;;;;;;;56.00;2.10;;;;;;;;;;5080790;28;20501;-68
2024/04/02 01:51:06;;;;;;;55.80;2.20;;;;;;;;;;5078217;28;20956;-68
2024/04/02 01:53:33;;;;;;;55.80;2.27;;;;;;;;;;5080631;28;20976;-68
2024/04/02 01:56:00;;;;;;;56.83;2.43;;;;;;;;;;5080078;28;20448;-68
2024/04/02 01:58:27;;;;;;;55.37;2.27;;;;;;;;;;5080278;28;20494;-69
2024/04/02 02:00:54;;;;;;;56.63;2.43;;;;;;;;;;5079827;28;20444;-68
2024/04/02 02:03:22;;;;;;;55.07;2.10;;;;;;;;;;5079970;28;20444;-68
2024/04/02 02:05:48;;;;;;;56.43;2.70;;;;;;;;;;5080722;28;20892;-68
2024/04/02 02:08:15;;;;;;;56.73;2.27;;;;;;;;;;5080183;28;20474;-69
2024/04/02 02:10:41;;;;;;;55.77;2.30;;;;;;;;;;5079683;28;20897;-68
2024/04/02 02:13:09;;;;;;;55.97;2.37;;;;;;;;;;5080275;28;20503;-66
2024/04/02 02:15:35;;;;;;;55.97;2.13;;;;;;;;;;5078889;28;20451;-66
2024/04/02 02:18:04;;;;;;;56.87;2.20;;;;;;;;;;5079946;28;20478;-67
2024/04/02 02:20:30;;;;;;;56.00;2.43;;;;;;;;;;5080131;28;20450;-67
2024/04/02 02:22:57;;;;;;;56.63;2.37;;;;;;;;;;5079881;28;20454;-67
2024/04/02 02:25:23;;;;;;;55.47;2.13;;;;;;;;;;5078414;28;20806;-66
2024/04/02 02:27:50;;;;;;;56.60;2.67;;;;;;;;;;5079756;28;20468;-67
2024/04/02 02:30:16;;;;;;;55.77;2.33;;;;;;;;;;5079681;28;20444;-67
2024/04/02 02:32:43;;;;;;;56.13;2.57;;;;;;;;;;5079642;28;20455;-67
2024/04/02 02:35:11;;;;;;;55.67;2.40;;;;;;;;;;5078958;28;20493;-68
2024/04/02 02:37:38;;;;;;;55.90;2.23;;;;;;;;;;5079287;28;20471;-67
2024/04/02 02:40:07;;;;;;;55.43;2.60;;;;;;;;;;5078557;28;20519;-67
2024/04/02 02:42:34;;;;;;;55.10;2.23;;;;;;;;;;5079800;28;20444;-67
2024/04/02 02:45:00;;;;;;;55.47;2.50;;;;;;;;;;5079339;28;20455;-67
2024/04/02 02:47:27;;;;;;;55.87;2.10;;;;;;;;;;5079811;28;20471;-68
2024/04/02 02:49:53;;;;;;;56.20;2.40;;;;;;;;;;5078914;28;20531;-67
2024/04/02 02:52:22;;;;;;;56.20;2.40;;;;;;;;;;5079467;28;20522;-67
2024/04/02 02:54:48;;;;;;;56.30;2.60;;;;;;;;;;5079423;28;20559;-67
2024/04/02 02:57:15;;;;;;;55.77;2.03;;;;;;;;;;5079065;28;20474;-67
2024/04/02 02:59:44;;;;;;;58.90;2.93;;;;;;;;;;5078749;28;21032;-67
2024/04/02 03:02:11;;;;;;;55.80;2.30;;;;;;;;;;5078688;28;20467;-67
2024/04/02 03:04:37;;;;;;;55.90;2.33;;;;;;;;;;5079158;28;20523;-67
2024/04/02 03:07:04;;;;;;;55.57;2.30;;;;;;;;;;5078370;28;20497;-67
2024/04/02 03:09:34;;;;;;;55.33;2.53;;;;;;;;;;5079353;28;20555;-67
2024/04/02 03:12:01;;;;;;;55.70;2.30;;;;;;;;;;5078722;28;20460;-67
2024/04/02 03:14:29;;;;;;;56.27;2.43;;;;;;;;;;5079710;28;20543;-67
2024/04/02 03:16:56;;;;;;;56.37;2.23;;;;;;;;;;5079953;28;21092;-67
2024/04/02 03:19:23;;;;;;;56.10;2.17;;;;;;;;;;5079058;28;20567;-67
2024/04/02 03:21:50;;;;;;;56.47;2.73;;;;;;;;;;5079092;28;20448;-67
2024/04/02 03:24:16;;;;;;;58.10;2.70;;;;;;;;;;5079113;28;20516;-67
2024/04/02 03:26:44;;;;;;;55.63;2.23;;;;;;;;;;5078898;28;20731;-67
2024/04/02 03:29:10;;;;;;;56.07;2.37;;;;;;;;;;5079055;28;20544;-68
2024/04/02 03:31:38;;;;;;;55.57;2.37;;;;;;;;;;5077290;28;20486;-67
2024/04/02 03:34:04;;;;;;;55.67;2.10;;;;;;;;;;5075768;28;21049;-67
2024/04/02 03:36:31;;;;;;;55.80;2.20;;;;;;;;;;5076661;28;20484;-67
2024/04/02 03:38:58;;;;;;;55.33;2.43;;;;;;;;;;5078395;28;20478;-67
2024/04/02 03:41:25;;;;;;;56.00;2.13;;;;;;;;;;5078504;28;20542;-67
2024/04/02 03:43:54;;;;;;;56.20;2.40;;;;;;;;;;5078503;28;20889;-67
2024/04/02 03:46:21;;;;;;;55.33;2.20;;;;;;;;;;5079708;28;20448;-67
2024/04/02 03:48:48;;;;;;;55.80;2.30;;;;;;;;;;5078349;28;20844;-68
2024/04/02 03:51:16;;;;;;;55.17;2.20;;;;;;;;;;5078974;28;20452;-67
2024/04/02 03:53:42;;;;;;;55.77;2.20;;;;;;;;;;5078797;28;20541;-67
2024/04/02 03:56:09;;;;;;;56.07;2.23;;;;;;;;;;5078737;28;20531;-67
2024/04/02 03:58:35;;;;;;;55.50;2.40;;;;;;;;;;5078723;28;21075;-68
2024/04/02 04:01:07;;;;;;;55.77;2.20;;;;;;;;;;5077739;28;20455;-67
2024/04/02 04:03:34;;;;;;;56.10;2.30;;;;;;;;;;5078619;28;20456;-67
2024/04/02 04:06:02;;;;;;;56.17;2.30;;;;;;;;;;5077920;28;20944;-68
2024/04/02 04:08:28;;;;;;;57.07;2.33;;;;;;;;;;5078800;28;20467;-68
2024/04/02 04:10:55;;;;;;;56.00;2.23;;;;;;;;;;5076842;28;20444;-68
2024/04/02 04:13:22;;;;;;;56.00;2.40;;;;;;;;;;5078402;28;20451;-67
2024/04/02 04:15:53;;;;;;;55.57;2.23;;;;;;;;;;5079056;28;20452;-67
2024/04/02 04:18:20;;;;;;;55.47;2.50;;;;;;;;;;5080475;28;20554;-68
2024/04/02 04:20:54;;;;;;;56.67;2.07;;;;;;;;;;5078004;28;20498;-68
2024/04/02 04:23:20;;;;;;;55.70;2.47;;;;;;;;;;5066124;28;20447;-68
2024/04/02 04:25:47;;;;;;;56.67;2.80;;;;;;;;;;5057947;28;20448;-67
2024/04/02 04:28:13;;;;;;;56.40;2.80;;;;;;;;;;5058155;28;20537;-67
2024/04/02 04:30:40;;;;;;;55.97;2.47;;;;;;;;;;5057767;28;20445;-67
2024/04/02 04:33:06;;;;;;;56.10;2.27;;;;;;;;;;5057605;28;20455;-68
2024/04/02 04:35:35;;;;;;;56.83;2.50;;;;;;;;;;5057883;28;20512;-68
2024/04/02 04:38:01;;;;;;;56.27;2.10;;;;;;;;;;5059718;28;20478;-68
2024/04/02 04:40:28;;;;;;;56.07;2.43;;;;;;;;;;5061808;28;20469;-68
2024/04/02 04:42:55;;;;;;;58.53;2.30;;;;;;;;;;5062058;28;20448;-68
2024/04/02 04:45:22;;;;;;;56.00;2.10;;;;;;;;;;5062067;28;20444;-68
2024/04/02 04:47:48;;;;;;;55.70;2.23;;;;;;;;;;5062217;28;21005;-68
2024/04/02 04:50:15;;;;;;;55.27;2.13;;;;;;;;;;5062414;28;20448;-68
2024/04/02 04:52:42;;;;;;;56.97;2.63;;;;;;;;;;5061793;28;20466;-68
2024/04/02 04:55:10;;;;;;;55.13;2.00;;;;;;;;;;5061574;28;20512;-68
2024/04/02 04:57:36;;;;;;;56.80;2.57;;;;;;;;;;5062188;28;20510;-68
2024/04/02 05:00:04;;;;;;;56.20;2.50;;;;;;;;;;5061524;28;20495;-68
2024/04/02 05:02:31;;;;;;;55.90;2.20;;;;;;;;;;5061076;28;20453;-67
2024/04/02 05:04:58;;;;;;;56.53;2.23;;;;;;;;;;5061461;28;20798;-68
2024/04/02 05:07:25;;;;;;;55.70;2.50;;;;;;;;;;5072037;28;20539;-67
2024/04/02 05:09:53;;;;;;;55.17;2.10;;;;;;;;;;5079736;28;20444;-67
2024/04/02 05:12:20;;;;;;;55.53;2.33;;;;;;;;;;5079861;28;20452;-68
2024/04/02 05:14:46;;;;;;;55.83;2.50;;;;;;;;;;5081795;28;20498;-68
2024/04/02 05:17:13;;;;;;;56.27;2.33;;;;;;;;;;5081680;28;20482;-68
2024/04/02 05:19:39;;;;;;;56.00;2.60;;;;;;;;;;5081065;28;20547;-67
2024/04/02 05:22:08;;;;;;;55.27;2.30;;;;;;;;;;5080901;28;20527;-68
2024/04/02 05:24:34;;;;;;;57.70;2.77;;;;;;;;;;5080927;28;20451;-68
2024/04/02 05:27:03;;;;;;;55.43;2.27;;;;;;;;;;5080970;28;20539;-68
2024/04/02 05:29:29;;;;;;;56.20;2.33;;;;;;;;;;5080403;28;20471;-68
2024/04/02 05:31:56;;;;;;;55.90;2.20;;;;;;;;;;5080813;28;20508;-68
2024/04/02 05:34:22;;;;;;;55.57;2.10;;;;;;;;;;5080009;28;20590;-67
2024/04/02 05:36:49;;;;;;;56.47;2.10;;;;;;;;;;5080627;28;20491;-67
2024/04/02 05:39:16;;;;;;;56.93;2.40;;;;;;;;;;5079990;28;20479;-68
2024/04/02 05:41:43;;;;;;;56.87;2.80;;;;;;;;;;5080453;28;20447;-67
2024/04/02 05:44:10;;;;;;;55.90;2.57;;;;;;;;;;5081098;28;21010;-67
2024/04/02 05:46:37;;;;;;;55.40;2.20;;;;;;;;;;5081501;28;20490;-68
2024/04/02 05:49:03;;;;;;;55.90;2.40;;;;;;;;;;5079544;28;20482;-68
2024/04/02 05:51:30;;;;;;;55.30;2.43;;;;;;;;;;5079634;28;20832;-68
2024/04/02 05:53:56;;;;;;;57.60;2.30;;;;;;;;;;5080984;28;20489;-68
2024/04/02 05:56:24;;;;;;;55.70;2.00;;;;;;;;;;5081643;28;20472;-68
2024/04/02 05:58:50;;;;;;;55.90;2.67;;;;;;;;;;5081633;28;20546;-67
2024/04/02 06:01:18;;;;;;;56.80;2.27;;;;;;;;;;5080950;28;20443;-67
2024/04/02 06:03:45;;;;;;;55.17;1.97;;;;;;;;;;5081254;28;20876;-68
2024/04/02 06:06:12;;;;;;;56.23;2.37;;;;;;;;;;5080416;28;20479;-68
2024/04/02 06:08:38;;;;;;;55.90;2.13;;;;;;;;;;5079113;28;20502;-68
2024/04/02 06:11:05;;;;;;;54.83;2.30;;;;;;;;;;5080146;28;20451;-68
2024/04/02 06:13:31;;;;;;;55.73;2.13;;;;;;;;;;5080226;28;20538;-67
2024/04/02 06:15:58;;;;;;;55.70;2.30;;;;;;;;;;5080035;28;20511;-68
2024/04/02 06:18:26;;;;;;;60.72;2.50;;;;;;;;;;5080004;28;20434;-68
2024/04/02 06:21:00;;;;;;;55.27;2.17;;;;;;;;;;5080179;28;20201;-68
2024/04/02 06:23:26;;;;;;;55.37;2.30;;;;;;;;;;5077234;28;20456;-68
2024/04/02 06:25:53;;;;;;;55.70;2.27;;;;;;;;;;5060493;28;20441;-68
2024/04/02 06:28:19;;;;;;;57.23;2.23;;;;;;;;;;5060223;28;20551;-68
2024/04/02 06:30:46;;;;;;;55.57;2.23;;;;;;;;;;5060228;28;20470;-68
2024/04/02 06:33:12;;;;;;;55.30;1.97;;;;;;;;;;5060051;28;20965;-67
2024/04/02 06:35:41;;;;;;;59.50;2.30;;;;;;;;;;5059959;28;20455;-67
2024/04/02 06:38:07;;;;;;;55.50;2.00;;;;;;;;;;5061056;28;20757;-67
2024/04/02 06:40:34;;;;;;;55.60;2.20;;;;;;;;;;5059372;28;20461;-67
2024/04/02 06:43:00;;;;;;;55.60;1.97;;;;;;;;;;5059352;28;20564;-68
2024/04/02 06:45:28;;;;;;;55.43;2.10;;;;;;;;;;5071214;28;20440;-68
2024/04/02 06:47:54;;;;;;;55.60;2.03;;;;;;;;;;5080347;28;21043;-68
2024/04/02 06:50:22;;;;;;;56.10;2.30;;;;;;;;;;5079890;28;20994;-68
2024/04/02 06:52:49;;;;;;;55.87;1.90;;;;;;;;;;5080395;28;20459;-68
2024/04/02 06:55:16;;;;;;;55.50;1.90;;;;;;;;;;5079923;28;20570;-67
2024/04/02 06:57:42;;;;;;;56.13;2.20;;;;;;;;;;5080263;28;20560;-68
2024/04/02 07:00:10;;;;;;;55.20;2.37;;;;;;;;;;5078923;28;20948;-67
2024/04/02 07:02:36;;;;;;;56.27;2.40;;;;;;;;;;5080224;28;20822;-67
2024/04/02 07:05:03;;;;;;;55.80;2.27;;;;;;;;;;5079905;28;20440;-68
2024/04/02 07:07:29;;;;;;;55.07;2.10;;;;;;;;;;5079295;28;20535;-67
2024/04/02 07:09:58;;;;;;;56.00;2.20;;;;;;;;;;5079977;28;20448;-67
2024/04/02 07:12:24;;;;;;;55.80;2.07;;;;;;;;;;5079211;28;20452;-68
2024/04/02 07:14:51;;;;;;;55.47;1.90;;;;;;;;;;5065267;28;20527;-67
2024/04/02 07:17:17;;;;;;;56.10;2.10;;;;;;;;;;5057536;28;20463;-67
2024/04/02 07:19:44;;;;;;;55.50;2.00;;;;;;;;;;5057590;28;20521;-67
2024/04/02 07:22:10;;;;;;;55.80;1.97;;;;;;;;;;5058414;28;20452;-68
2024/04/02 07:24:37;;;;;;;55.27;2.00;;;;;;;;;;5065744;28;20440;-67
2024/04/02 07:27:05;;;;;;;55.90;2.10;;;;;;;;;;5078827;28;20539;-67
2024/04/02 07:29:32;;;;;;;55.30;1.70;;;;;;;;;;5079155;28;20472;-67
2024/04/02 07:31:58;;;;;;;56.70;2.13;;;;;;;;;;5079107;28;20972;-67
2024/04/02 07:34:25;;;;;;;56.63;2.27;;;;;;;;;;5079039;28;20834;-68
2024/04/02 07:36:51;;;;;;;56.00;2.27;;;;;;;;;;5079262;28;20448;-67
2024/04/02 07:39:18;;;;;;;56.27;2.20;;;;;;;;;;5068888;28;20488;-67
2024/04/02 07:41:46;;;;;;;55.40;1.97;;;;;;;;;;5058364;28;20539;-68
2024/04/02 07:44:14;;;;;;;56.07;2.00;;;;;;;;;;5058638;28;20466;-68
2024/04/02 07:46:41;;;;;;;56.20;2.00;;;;;;;;;;5069327;28;20558;-68
2024/04/02 07:49:08;;;;;;;56.07;1.73;;;;;;;;;;5076600;28;20487;-67
2024/04/02 07:51:34;;;;;;;55.23;1.90;;;;;;;;;;5076948;28;20455;-68
2024/04/02 07:54:01;;;;;;;55.00;2.00;;;;;;;;;;5075742;28;20455;-68
2024/04/02 07:56:27;;;;;;;55.40;1.97;;;;;;;;;;5078885;28;20515;-68
2024/04/02 07:58:54;;;;;;;56.13;2.03;;;;;;;;;;5078871;28;20498;-68
2024/04/02 08:01:22;;;;;;;58.87;2.20;;;;;;;;;;5077739;28;20517;-68
2024/04/02 08:03:49;;;;;;;58.03;2.37;;;;;;;;;;5077692;28;20471;-68
2024/04/02 08:06:15;;;;;;;60.17;2.30;;;;;;;;;;5078541;28;20530;-68
2024/04/02 08:08:42;;;;;;;56.77;2.17;;;;;;;;;;5078521;28;20495;-68
2024/04/02 08:11:08;;;;;;;58.47;2.50;;;;;;;;;;5078113;28;20444;-68
2024/04/02 08:13:35;;;;;;;56.60;2.07;;;;;;;;;;5077463;28;20475;-68
2024/04/02 08:16:03;;;;;;;57.57;2.40;;;;;;;;;;5078454;28;20494;-68
2024/04/02 08:18:32;;;;;;;56.30;2.03;;;;;;;;;;5078114;28;20468;-68
2024/04/02 08:20:58;;;;;;;57.77;2.47;;;;;;;;;;5076967;28;20511;-66
2024/04/02 08:23:25;;;;;;;56.37;2.40;;;;;;;;;;5077110;28;20488;-66
2024/04/02 08:25:51;;;;;;;57.20;2.40;;;;;;;;;;5078006;28;20452;-67
2024/04/02 08:28:18;;;;;;;57.20;2.27;;;;;;;;;;5077689;28;20531;-68
2024/04/02 08:30:45;;;;;;;56.33;1.83;;;;;;;;;;5076792;28;20478;-68
2024/04/02 08:33:12;;;;;;;58.80;2.30;;;;;;;;;;5077441;28;20444;-71
2024/04/02 08:35:39;;;;;;;57.07;2.20;;;;;;;;;;5075818;28;20968;-68
2024/04/02 08:38:06;;;;;;;55.63;2.07;;;;;;;;;;5076367;28;21026;-68
2024/04/02 08:40:33;;;;;;;58.53;2.47;;;;;;;;;;5076177;28;20507;-68
2024/04/02 08:43:02;;;;;;;60.63;2.27;;;;;;;;;;5076123;28;20609;-68
2024/04/02 08:45:28;;;;;;;56.77;2.10;;;;;;;;;;5076888;28;20533;-68
2024/04/02 08:47:55;;;;;;;55.97;2.07;;;;;;;;;;5076527;28;20498;-66
2024/04/02 08:50:22;;;;;;;55.87;1.90;;;;;;;;;;5075667;28;20452;-67
2024/04/02 08:52:51;;;;;;;57.40;2.27;;;;;;;;;;5076093;28;20535;-67
2024/04/02 08:55:19;;;;;;;57.47;2.17;;;;;;;;;;5058394;28;20488;-66
2024/04/02 08:57:47;;;;;;;55.27;1.90;;;;;;;;;;5059019;28;20478;-66
2024/04/02 09:00:13;;;;;;;56.67;2.50;;;;;;;;;;5058171;28;20512;-66
2024/04/02 09:02:41;;;;;;;54.90;1.90;;;;;;;;;;5058313;28;20480;-66
2024/04/02 09:05:07;;;;;;;56.57;2.10;;;;;;;;;;5059596;28;20512;-66
2024/04/02 09:07:34;;;;;;;56.43;1.90;;;;;;;;;;5059301;28;20445;-66
2024/04/02 09:10:02;;;;;;;55.90;1.90;;;;;;;;;;5072643;28;20483;-66
2024/04/02 09:12:29;;;;;;;56.00;2.20;;;;;;;;;;5077474;28;20451;-66
2024/04/02 09:14:55;;;;;;;55.87;2.70;;;;;;;;;;5076123;28;20589;-67
2024/04/02 09:17:22;;;;;;;55.60;2.27;;;;;;;;;;5076347;28;20976;-67
2024/04/02 09:19:48;;;;;;;55.73;2.40;;;;;;;;;;5077514;28;20447;-67
2024/04/02 09:22:17;;;;;;;56.73;2.27;;;;;;;;;;5075882;28;20451;-67
2024/04/02 09:24:43;;;;;;;59.13;2.23;;;;;;;;;;5078468;28;20534;-67
2024/04/02 09:27:11;;;;;;;56.87;2.10;;;;;;;;;;5081019;28;20532;-67
2024/04/02 09:29:38;;;;;;;55.63;1.87;;;;;;;;;;5080312;28;20468;-67
2024/04/02 09:32:06;;;;;;;57.47;2.40;;;;;;;;;;5080139;28;20439;-67
2024/04/02 09:34:34;;;;;;;55.97;2.17;;;;;;;;;;5080561;28;20559;-68
2024/04/02 09:37:05;;;;;;;56.20;1.83;;;;;;;;;;5079890;28;20455;-68
2024/04/02 09:39:32;;;;;;;58.00;2.70;;;;;;;;;;5079652;28;20642;-68
2024/04/02 09:41:59;;;;;;;55.90;2.30;;;;;;;;;;5079841;28;20463;-67
2024/04/02 09:44:28;;;;;;;61.17;2.63;;;;;;;;;;5080209;28;20542;-67
2024/04/02 09:46:56;;;;;;;57.00;2.13;;;;;;;;;;5080802;28;20543;-67
2024/04/02 09:49:23;;;;;;;56.50;2.30;;;;;;;;;;5079878;28;20901;-67
2024/04/02 09:51:51;;;;;;;56.17;1.80;;;;;;;;;;5078856;28;20444;-67
2024/04/02 09:54:18;;;;;;;56.60;2.83;;;;;;;;;;5079113;28;20505;-67
2024/04/02 09:56:46;;;;;;;57.00;2.50;;;;;;;;;;5079064;28;20515;-68
2024/04/02 09:59:12;;;;;;;57.07;2.07;;;;;;;;;;5079596;28;20490;-67
2024/04/02 10:01:41;;;;;;;55.80;1.90;;;;;;;;;;5078025;28;20837;-68
2024/04/02 10:04:09;;;;;;;56.17;2.20;;;;;;;;;;5077496;28;20523;-67
2024/04/02 10:06:37;;;;;;;58.17;2.50;;;;;;;;;;5077683;28;20440;-67
2024/04/02 10:09:04;;;;;;;60.60;2.73;;;;;;;;;;5077730;28;20463;-67
2024/04/02 10:11:37;;;;;;;56.57;2.27;;;;;;;;;;5077792;28;20444;-67
2024/04/02 10:14:04;;;;;;;56.30;2.00;;;;;;;;;;5062492;28;20441;-67
2024/04/02 10:16:32;;;;;;;56.00;2.20;;;;;;;;;;5058337;28;20476;-67
2024/04/02 10:19:01;;;;;;;58.37;2.40;;;;;;;;;;5057935;28;20555;-67
2024/04/02 10:21:30;;;;;;;58.27;3.10;;;;;;;;;;5057825;28;20452;-68
2024/04/02 10:23:56;;;;;;;56.23;2.40;;;;;;;;;;5057862;28;20552;-67
2024/04/02 10:26:23;;;;;;;59.63;2.57;;;;;;;;;;5058085;28;20475;-67
2024/04/02 10:28:54;;;;;;;57.27;2.37;;;;;;;;;;5057612;28;20476;-68
2024/04/02 10:31:21;;;;;;;57.47;2.57;;;;;;;;;;5057727;28;20456;-67
2024/04/02 10:33:48;;;;;;;57.10;2.10;;;;;;;;;;5057844;28;20457;-68
2024/04/02 10:36:17;;;;;;;57.30;2.13;;;;;;;;;;5057029;28;20563;-67
2024/04/02 10:38:43;;;;;;;56.70;2.27;;;;;;;;;;5070374;28;20551;-68
2024/04/02 10:41:11;;;;;;;55.90;2.23;;;;;;;;;;5076939;28;20440;-67
2024/04/02 10:43:37;;;;;;;58.50;2.20;;;;;;;;;;5077188;28;20534;-68
2024/04/02 10:46:06;;;;;;;61.40;2.53;;;;;;;;;;5076711;28;20440;-67
2024/04/02 10:48:32;;;;;;;57.47;2.67;;;;;;;;;;5076329;28;20468;-68
2024/04/02 10:50:59;;;;;;;56.40;2.20;;;;;;;;;;5076605;28;20540;-67
2024/04/02 10:53:27;;;;;;;56.00;2.40;;;;;;;;;;5076686;28;20454;-65
2024/04/02 10:55:54;;;;;;;57.00;2.23;;;;;;;;;;5063908;28;20473;-68
2024/04/02 10:58:20;;;;;;;57.40;2.20;;;;;;;;;;5057778;28;20482;-68
2024/04/02 11:00:47;;;;;;;56.10;2.20;;;;;;;;;;5055752;28;20502;-68
2024/04/02 11:03:13;;;;;;;56.70;2.53;;;;;;;;;;5056144;28;20512;-68
2024/04/02 11:05:40;;;;;;;56.67;2.20;;;;;;;;;;5055607;28;20445;-68
2024/04/02 11:08:09;;;;;;;56.30;2.20;;;;;;;;;;5055712;28;20548;-67
2024/04/02 11:10:38;;;;;;;59.00;2.57;;;;;;;;;;5056738;28;20510;-68
2024/04/02 11:13:04;;;;;;;57.60;2.70;;;;;;;;;;5057668;28;20453;-68
2024/04/02 11:15:31;;;;;;;56.20;2.37;;;;;;;;;;5056015;28;20582;-67
2024/04/02 11:17:57;;;;;;;56.77;2.60;;;;;;;;;;5057599;28;20465;-67
2024/04/02 11:20:24;;;;;;;55.70;2.33;;;;;;;;;;5057012;28;20455;-68
2024/04/02 11:25:37;;;;;;;56.10;1.90;;;;;;;;;;5058720;28;20441;-67
2024/04/02 11:28:05;;;;;;;56.70;3.00;;;;;;;;;;5058439;28;20548;-68
2024/04/02 11:30:32;;;;;;;57.23;2.20;;;;;;;;;;5058265;28;20806;-68
2024/04/02 11:32:58;;;;;;;57.17;2.57;;;;;;;;;;5058539;28;20628;-68
2024/04/02 11:35:27;;;;;;;56.10;2.00;;;;;;;;;;5058560;28;20485;-68
2024/04/02 11:37:53;;;;;;;56.77;2.20;;;;;;;;;;5058280;28;20835;-67
2024/04/02 11:40:21;;;;;;;57.03;2.10;;;;;;;;;;5057097;28;20488;-68
2024/04/02 11:42:48;;;;;;;55.97;2.30;;;;;;;;;;5057912;28;20453;-68
2024/04/02 11:45:15;;;;;;;57.67;2.17;;;;;;;;;;5057345;28;20460;-68
2024/04/02 11:47:41;;;;;;;56.47;2.27;;;;;;;;;;5056963;28;20460;-68
2024/04/02 11:50:09;;;;;;;56.37;2.07;;;;;;;;;;5056893;28;20437;-68
2024/04/02 11:52:36;;;;;;;57.10;2.33;;;;;;;;;;5075638;28;20531;-68
2024/04/02 11:55:03;;;;;;;57.60;2.60;;;;;;;;;;5076533;28;20917;-67
2024/04/02 12:00:17;;;;;;;58.90;2.13;;;;;;;;;;5075029;28;20510;-67
2024/04/02 12:02:45;;;;;;;56.93;2.10;;;;;;;;;;5074972;28;20509;-68
2024/04/02 12:05:13;;;;;;;56.47;2.20;;;;;;;;;;5075580;28;20498;-68
2024/04/02 12:07:40;;;;;;;55.90;2.23;;;;;;;;;;5075924;28;20498;-66
2024/04/02 12:10:07;;;;;;;55.87;2.13;;;;;;;;;;5075209;28;20451;-67
2024/04/02 12:12:34;;;;;;;55.70;2.13;;;;;;;;;;5074549;28;20452;-68
2024/04/02 12:15:01;;;;;;;56.87;2.20;;;;;;;;;;5074806;28;20455;-67
2024/04/02 12:17:29;;;;;;;57.10;2.00;;;;;;;;;;5075500;28;20546;-68
2024/04/02 12:19:56;;;;;;;56.10;2.30;;;;;;;;;;5074623;28;20447;-68
2024/04/02 12:22:23;;;;;;;57.50;2.40;;;;;;;;;;5074813;28;20444;-68
2024/04/02 12:24:50;;;;;;;56.90;2.30;;;;;;;;;;5074984;28;20440;-68
2024/04/02 12:27:17;;;;;;;56.67;2.10;;;;;;;;;;5074264;28;20816;-67
2024/04/02 12:29:43;;;;;;;56.57;2.00;;;;;;;;;;5074537;28;20444;-67
2024/04/02 12:32:11;;;;;;;56.40;2.30;;;;;;;;;;5075420;28;20440;-66
2024/04/02 12:34:40;;;;;;;55.77;1.93;;;;;;;;;;5067123;28;20469;-67
2024/04/02 12:37:07;;;;;;;58.30;2.80;;;;;;;;;;5076004;28;20503;-67
2024/04/02 12:39:34;;;;;;;55.70;2.07;;;;;;;;;;5075124;28;20482;-67
2024/04/02 12:42:01;;;;;;;56.77;2.20;;;;;;;;;;5075537;28;20968;-67
2024/04/02 12:44:29;;;;;;;55.63;1.90;;;;;;;;;;5074436;28;20470;-66
2024/04/02 12:46:56;;;;;;;55.80;2.07;;;;;;;;;;5076477;28;20546;-69
2024/04/02 12:49:22;;;;;;;56.23;2.30;;;;;;;;;;5076454;28;20478;-66
2024/04/02 12:51:52;;;;;;;55.90;2.20;;;;;;;;;;5075568;28;20450;-67
2024/04/02 12:54:18;;;;;;;56.40;2.10;;;;;;;;;;5075951;28;20448;-69
2024/04/02 12:56:45;;;;;;;55.90;2.00;;;;;;;;;;5075110;28;20921;-68
2024/04/02 12:59:12;;;;;;;56.67;2.20;;;;;;;;;;5077034;28;20471;-67
2024/04/02 13:01:39;;;;;;;56.87;2.20;;;;;;;;;;5079425;28;20454;-66
2024/04/02 13:04:06;;;;;;;56.17;1.93;;;;;;;;;;5079158;28;20448;-66
2024/04/02 13:06:34;;;;;;;56.30;2.57;;;;;;;;;;5080350;28;20447;-66
2024/04/02 13:09:03;;;;;;;55.80;2.07;;;;;;;;;;5078509;28;20846;-66
2024/04/02 13:11:30;;;;;;;57.07;2.17;;;;;;;;;;5078931;28;20493;-67
2024/04/02 13:13:57;;;;;;;57.23;2.20;;;;;;;;;;5079354;28;20962;-67
2024/04/02 13:16:33;;;;;;;56.43;1.80;;;;;;;;;;5079494;28;20479;-67
2024/04/02 13:19:00;;;;;;;55.90;2.00;;;;;;;;;;5079423;28;20467;-67
2024/04/02 13:21:28;;;;;;;55.70;1.90;;;;;;;;;;5078928;28;20440;-67
2024/04/02 13:23:56;;;;;;;56.00;2.00;;;;;;;;;;5077057;28;20937;-67
2024/04/02 13:26:25;;;;;;;57.50;2.30;;;;;;;;;;5078713;28;20509;-67
2024/04/02 13:28:53;;;;;;;55.53;1.87;;;;;;;;;;5078081;28;20463;-68
2024/04/02 13:31:20;;;;;;;55.97;1.80;;;;;;;;;;5077412;28;20453;-67
2024/04/02 13:33:47;;;;;;;55.47;2.00;;;;;;;;;;5078497;28;20462;-67
2024/04/02 13:36:15;;;;;;;55.40;1.90;;;;;;;;;;5078433;28;20479;-68
2024/04/02 13:38:42;;;;;;;55.37;1.90;;;;;;;;;;5078398;28;20471;-68
2024/04/02 13:41:10;;;;;;;55.70;2.13;;;;;;;;;;5077490;28;20460;-68
2024/04/02 13:43:37;;;;;;;58.17;2.13;;;;;;;;;;5077797;28;20516;-68
2024/04/02 13:46:04;;;;;;;55.40;2.00;;;;;;;;;;5078047;28;20480;-68
2024/04/02 13:48:31;;;;;;;56.97;2.30;;;;;;;;;;5077863;28;20486;-68
2024/04/02 13:51:02;;;;;;;55.80;2.20;;;;;;;;;;5076390;28;20484;-67
2024/04/02 13:53:29;;;;;;;56.40;2.30;;;;;;;;;;5077534;28;20452;-67
2024/04/02 13:55:57;;;;;;;55.90;1.93;;;;;;;;;;5077181;28;21005;-67
2024/04/02 13:58:23;;;;;;;56.77;1.90;;;;;;;;;;5076734;28;20847;-68
2024/04/02 14:00:52;;;;;;;57.60;2.20;;;;;;;;;;5077569;28;20543;-68
2024/04/02 14:03:18;;;;;;;60.03;2.10;;;;;;;;;;5077092;28;20447;-68
2024/04/02 14:05:45;;;;;;;55.93;2.10;;;;;;;;;;5078519;28;20462;-68
2024/04/02 14:08:11;;;;;;;55.50;2.10;;;;;;;;;;5076941;28;20463;-67
2024/04/02 14:10:39;;;;;;;56.53;2.10;;;;;;;;;;5075203;28;20490;-67
2024/04/02 14:13:09;;;;;;;57.47;2.40;;;;;;;;;;5077755;28;20507;-68
2024/04/02 14:15:36;;;;;;;56.00;2.17;;;;;;;;;;5077630;28;20483;-68
2024/04/02 14:18:05;;;;;;;56.20;2.20;;;;;;;;;;5078994;28;20532;-68
2024/04/02 14:20:32;;;;;;;56.17;2.07;;;;;;;;;;5078872;28;20534;-68
2024/04/02 14:22:59;;;;;;;56.10;2.00;;;;;;;;;;5077746;28;20447;-67
2024/04/02 14:25:25;;;;;;;57.80;2.13;;;;;;;;;;5077878;28;20543;-68
2024/04/02 14:27:55;;;;;;;56.37;2.17;;;;;;;;;;5078133;28;20459;-67
2024/04/02 14:30:21;;;;;;;56.37;2.50;;;;;;;;;;5077133;28;20479;-67
2024/04/02 14:32:49;;;;;;;55.57;2.10;;;;;;;;;;5077025;28;20448;-68
2024/04/02 14:35:16;;;;;;;55.67;1.87;;;;;;;;;;5077924;28;20456;-67